createdAt,value
2022-12-24T00:17:43.808Z,100010.10
2022-12-24T00:20:16.939Z,100011.19
2022-12-24T00:22:49.642Z,100004.50
2022-12-24T00:28:43.244Z,100011.03
2022-12-24T00:31:19.216Z,100004.55
2022-12-24T00:33:53.652Z,100017.22
2022-12-24T00:36:29.316Z,100013.69
2022-12-24T00:56:00.926Z,100028.20
2022-12-24T01:31:31.742Z,100044.17
2022-12-24T01:46:00.824Z,100058.06
2022-12-24T01:59:31.119Z,100063.88
2022-12-24T02:02:01.279Z,100065.02
2022-12-24T02:04:37.809Z,100063.72
2022-12-24T02:07:07.485Z,100060.41
2022-12-24T02:09:39.307Z,100065.75
2022-12-24T02:12:09.679Z,100070.30
2022-12-24T02:14:39.482Z,100071.48
2022-12-24T02:17:34.039Z,100073.17
2022-12-24T02:24:59.735Z,100068.92
2022-12-24T02:27:38.173Z,100057.39
2022-12-24T02:30:42.055Z,100060.95
2022-12-24T02:33:29.756Z,100064.52
2022-12-24T02:36:06.544Z,100066.46
2022-12-24T02:43:25.619Z,100068.89
2022-12-24T02:46:02.193Z,100070.16
2022-12-24T02:49:00.215Z,100066.93
2022-12-24T02:51:29.728Z,100069.95
2022-12-24T02:54:07.323Z,100071.43
2022-12-24T02:56:57.344Z,100073.59
2022-12-24T02:59:51.966Z,100070.73
2022-12-24T03:02:33.659Z,100072.55
2022-12-24T03:06:32.478Z,100071.10
2022-12-24T03:09:12.818Z,100075.27
2022-12-24T03:11:49.568Z,100066.55
2022-12-24T05:00:41.957Z,100116.75
2022-12-24T05:14:52.288Z,100125.41
2022-12-24T05:29:05.906Z,100131.48
2022-12-24T05:59:48.903Z,100168.58
2022-12-24T06:48:14.760Z,100224.04
2022-12-24T07:02:39.898Z,100242.96
2022-12-24T07:10:14.347Z,100249.63
2022-12-24T07:12:44.110Z,100267.17
2022-12-24T07:15:41.411Z,100265.73
2022-12-24T07:18:11.550Z,100266.21
2022-12-24T07:20:42.495Z,100274.94
2022-12-24T07:24:55.637Z,100279.83
2022-12-24T07:28:06.799Z,100285.00
2022-12-24T07:30:54.292Z,100301.08
2022-12-24T07:33:23.605Z,100305.59
2022-12-24T07:36:03.938Z,100303.19
2022-12-24T07:39:28.407Z,100309.50
2022-12-24T07:42:07.286Z,100309.92
2022-12-24T07:44:38.201Z,100318.71
2022-12-24T07:47:07.622Z,100323.88
2022-12-24T07:49:37.427Z,100325.83
2022-12-24T07:52:06.903Z,100327.36
2022-12-24T07:54:36.410Z,100333.67
2022-12-24T07:57:05.751Z,100336.17
2022-12-24T07:59:41.235Z,100339.80
2022-12-24T08:02:18.596Z,100340.20
2022-12-24T08:06:16.371Z,100342.73
2022-12-24T08:08:45.713Z,100343.30
2022-12-24T08:11:17.892Z,100348.66
2022-12-24T08:13:56.379Z,100354.49
2022-12-24T08:16:42.722Z,100360.59
2022-12-24T08:19:13.415Z,100365.61
2022-12-24T08:21:43.187Z,100371.96
2022-12-24T08:24:16.321Z,100372.91
2022-12-24T08:26:47.356Z,100374.11
2022-12-24T08:29:16.601Z,100380.05
2022-12-24T08:31:48.281Z,100385.52
2022-12-24T08:34:24.915Z,100384.66
2022-12-24T08:36:54.391Z,100387.44
2022-12-24T08:39:24.417Z,100387.35
2022-12-24T08:41:54.707Z,100389.38
2022-12-24T08:44:23.967Z,100388.01
2022-12-24T08:46:53.271Z,100394.69
2022-12-24T08:49:22.824Z,100399.23
2022-12-24T08:51:52.746Z,100399.45
2022-12-24T08:55:03.924Z,100403.27
2022-12-24T08:58:09.749Z,100412.73
2022-12-24T09:01:18.037Z,100421.94
2022-12-24T09:03:47.997Z,100425.70
2022-12-24T09:06:17.516Z,100426.30
2022-12-24T09:08:49.822Z,100425.48
2022-12-24T09:11:25.804Z,100436.16
2022-12-24T09:18:18.643Z,100430.81
2022-12-24T09:21:00.563Z,100436.48
2022-12-24T09:23:34.637Z,100443.85
2022-12-24T09:26:10.150Z,100450.77
2022-12-24T09:28:39.497Z,100449.14
2022-12-24T09:31:10.286Z,100450.34
2022-12-24T09:33:45.228Z,100449.77
2022-12-24T09:36:16.045Z,100454.06
2022-12-24T09:41:44.322Z,100456.52
2022-12-24T09:44:34.573Z,100456.86
2022-12-24T09:47:12.388Z,100457.60
2022-12-24T09:52:36.384Z,100464.05
2022-12-24T09:55:18.223Z,100464.63
2022-12-24T09:57:50.524Z,100466.41
2022-12-24T10:00:23.198Z,100460.34
2022-12-24T10:02:53.209Z,100456.52
2022-12-24T10:05:36.680Z,100456.31
2022-12-24T10:08:17.957Z,100458.98
2022-12-24T10:10:53.060Z,100461.17
2022-12-24T10:13:37.847Z,100461.63
2022-12-24T10:16:18.208Z,100458.09
2022-12-24T10:19:00.613Z,100473.64
2022-12-24T10:21:42.313Z,100477.16
2022-12-24T10:24:19.614Z,100480.45
2022-12-24T10:26:54.990Z,100480.92
2022-12-24T10:29:27.723Z,100481.39
2022-12-24T10:32:16.030Z,100485.56
2022-12-24T10:34:50.048Z,100487.18
2022-12-24T10:37:23.506Z,100494.74
2022-12-24T10:39:56.934Z,100500.30
2022-12-24T10:42:37.579Z,100508.55
2022-12-24T10:45:13.943Z,100513.91
2022-12-24T10:47:47.657Z,100515.56
2022-12-24T10:50:30.315Z,100521.14
2022-12-24T10:53:06.965Z,100530.52
2022-12-24T10:55:36.409Z,100538.02
2022-12-24T10:58:13.264Z,100545.04
2022-12-24T11:00:49.419Z,100547.30
2022-12-24T11:03:28.394Z,100549.02
2022-12-24T11:06:04.529Z,100546.13
2022-12-24T11:08:34.661Z,100547.88
2022-12-24T11:11:07.481Z,100552.85
2022-12-24T11:13:43.302Z,100552.80
2022-12-24T11:16:23.486Z,100555.64
2022-12-24T11:18:55.372Z,100553.73
2022-12-24T11:21:27.615Z,100554.02
2022-12-24T11:23:59.798Z,100558.09
2022-12-24T11:26:33.912Z,100560.67
2022-12-24T11:29:20.144Z,100560.52
2022-12-24T11:31:52.355Z,100561.88
2022-12-24T11:34:44.606Z,100559.52
2022-12-24T11:37:20.423Z,100557.34
2022-12-24T11:39:53.139Z,100558.55
2022-12-24T11:42:31.284Z,100564.21
2022-12-24T11:45:05.986Z,100570.84
2022-12-24T11:47:37.578Z,100576.37
2022-12-24T11:50:26.467Z,100577.44
2022-12-24T11:53:05.486Z,100581.83
2022-12-24T11:55:47.040Z,100584.38
2022-12-24T11:58:24.130Z,100586.41
2022-12-24T12:01:01.496Z,100588.73
2022-12-24T12:03:38.281Z,100594.43
2022-12-24T12:06:17.140Z,100594.94
2022-12-24T12:08:47.736Z,100598.48
2022-12-24T12:11:19.791Z,100608.16
2022-12-24T12:13:49.339Z,100613.41
2022-12-24T12:16:24.674Z,100614.36
2022-12-24T12:19:00.287Z,100616.02
2022-12-24T12:21:38.568Z,100621.85
2022-12-24T12:24:17.944Z,100624.10
2022-12-24T12:26:57.869Z,100624.48
2022-12-24T12:29:31.013Z,100624.92
2022-12-24T12:32:22.870Z,100629.21
2022-12-24T12:35:02.017Z,100633.73
2022-12-24T12:37:39.371Z,100633.99
2022-12-24T12:40:15.475Z,100636.23
2022-12-24T12:42:57.370Z,100643.07
2022-12-24T12:45:43.504Z,100640.64
2022-12-24T12:48:47.241Z,100646.82
2022-12-24T12:51:29.651Z,100649.31
2022-12-24T12:54:25.860Z,100651.63
2022-12-24T12:57:00.595Z,100656.70
2022-12-24T12:59:38.550Z,100663.64
2022-12-24T13:02:38.463Z,100666.46
2022-12-24T13:05:48.381Z,100665.42
2022-12-24T13:12:39.264Z,100665.22
2022-12-24T13:15:48.792Z,100666.39
2022-12-24T13:19:24.613Z,100675.05
2022-12-24T13:21:56.498Z,100673.13
2022-12-24T13:24:28.353Z,100676.87
2022-12-24T13:27:07.971Z,100675.23
2022-12-24T13:29:53.858Z,100678.20
2022-12-24T13:32:49.639Z,100686.73
2022-12-24T13:35:38.349Z,100689.41
2022-12-24T13:38:33.760Z,100695.66
2022-12-24T13:41:48.891Z,100698.34
2022-12-24T13:45:14.650Z,100702.91
2022-12-24T13:47:44.180Z,100704.92
2022-12-24T13:50:24.488Z,100707.02
2022-12-24T13:52:54.478Z,100710.89
2022-12-24T13:55:37.746Z,100714.50
2022-12-24T13:58:16.720Z,100718.93
2022-12-24T14:00:55.738Z,100724.38
2022-12-24T14:03:34.179Z,100730.85
2022-12-24T14:06:06.855Z,100730.69
2022-12-24T14:08:44.067Z,100729.59
2022-12-24T14:11:16.549Z,100736.27
2022-12-24T14:14:13.479Z,100738.80
2022-12-24T14:16:48.718Z,100740.52
2022-12-24T14:19:37.354Z,100752.27
2022-12-24T14:22:28.749Z,100758.95
2022-12-24T14:25:04.720Z,100763.45
2022-12-24T14:27:43.043Z,100765.55
2022-12-24T14:30:20.221Z,100771.36
2022-12-24T14:32:51.295Z,100765.45
2022-12-24T14:35:23.643Z,100763.86
2022-12-24T14:37:58.351Z,100762.79
2022-12-24T14:40:30.593Z,100767.36
2022-12-24T14:43:20.382Z,100765.06
2022-12-24T14:46:07.166Z,100765.73
2022-12-24T14:48:48.185Z,100774.11
2022-12-24T14:51:25.376Z,100776.32
2022-12-24T14:54:31.679Z,100777.55
2022-12-24T14:57:18.829Z,100783.38
2022-12-24T15:00:21.128Z,100792.95
2022-12-24T15:02:54.216Z,100794.35
2022-12-24T15:05:53.551Z,100797.85
2022-12-24T15:08:31.312Z,100808.45
2022-12-24T15:11:11.550Z,100814.89
2022-12-24T15:14:38.390Z,100819.61
2022-12-24T15:17:09.557Z,100833.84
2022-12-24T15:20:14.991Z,100827.22
2022-12-24T15:22:50.283Z,100830.86
2022-12-24T15:25:23.333Z,100834.00
2022-12-24T15:27:53.081Z,100838.29
2022-12-24T15:30:35.193Z,100839.36
2022-12-24T15:33:13.390Z,100839.23
2022-12-24T15:35:51.536Z,100842.81
2022-12-24T15:38:33.896Z,100845.66
2022-12-24T15:41:06.797Z,100845.17
2022-12-24T15:43:47.676Z,100859.52
2022-12-24T15:46:21.897Z,100864.20
2022-12-24T15:48:53.092Z,100863.96
2022-12-24T15:51:26.495Z,100862.84
2022-12-24T15:54:01.651Z,100859.73
2022-12-24T15:56:36.987Z,100864.97
2022-12-24T15:59:35.364Z,100870.78
2022-12-24T16:02:34.599Z,100878.13
2022-12-24T16:05:31.042Z,100870.85
2022-12-24T16:08:29.459Z,100867.02
2022-12-24T16:11:16.778Z,100871.32
2022-12-24T16:14:02.485Z,100876.81
2022-12-24T16:16:35.864Z,100880.42
2022-12-24T16:19:06.613Z,100883.70
2022-12-24T16:21:39.012Z,100881.14
2022-12-24T16:24:18.674Z,100886.27
2022-12-24T16:26:48.836Z,100891.14
2022-12-24T16:29:19.221Z,100891.65
2022-12-24T16:31:51.697Z,100893.16
2022-12-24T16:34:24.117Z,100890.81
2022-12-24T16:36:56.823Z,100899.30
2022-12-24T16:39:30.233Z,100902.92
2022-12-24T16:42:19.753Z,100906.98
2022-12-24T16:44:53.433Z,100908.19
2022-12-24T16:47:25.642Z,100909.84
2022-12-24T16:49:57.486Z,100914.64
2022-12-24T16:52:28.841Z,100914.12
2022-12-24T16:55:00.936Z,100913.40
2022-12-24T16:57:33.013Z,100912.56
2022-12-24T17:00:04.701Z,100914.17
2022-12-24T17:02:34.201Z,100916.14
2022-12-24T17:05:07.111Z,100915.55
2022-12-24T17:07:42.931Z,100913.69
2022-12-24T17:10:14.323Z,100911.36
2022-12-24T17:12:43.881Z,100910.78
2022-12-24T17:15:13.587Z,100914.05
2022-12-24T17:17:44.933Z,100913.14
2022-12-24T17:20:18.983Z,100913.30
2022-12-24T17:22:52.139Z,100914.73
2022-12-24T17:25:21.884Z,100913.44
2022-12-24T17:27:52.011Z,100916.64
2022-12-24T17:30:21.751Z,100931.61
2022-12-24T17:32:51.258Z,100934.91
2022-12-24T17:35:27.770Z,100936.58
2022-12-24T17:38:21.011Z,100938.79
2022-12-24T17:41:07.081Z,100926.98
2022-12-24T17:43:36.848Z,100920.77
2022-12-24T17:46:06.886Z,100914.16
2022-12-24T17:48:36.469Z,100915.27
2022-12-24T17:51:08.018Z,100921.88
2022-12-24T17:53:42.408Z,100925.92
2022-12-24T17:56:13.624Z,100925.61
2022-12-24T17:58:45.017Z,100938.04
2022-12-24T18:01:18.204Z,100942.05
2022-12-24T18:04:22.517Z,100941.17
2022-12-24T18:06:57.806Z,100946.89
2022-12-24T18:09:40.153Z,100949.65
2022-12-24T18:12:23.295Z,100950.14
2022-12-24T18:15:05.142Z,100944.67
2022-12-24T18:17:59.035Z,100954.63
2022-12-24T18:20:29.344Z,100964.43
2022-12-24T18:26:36.576Z,100961.67
2022-12-24T18:29:24.248Z,100966.77
2022-12-24T18:31:59.807Z,100969.70
2022-12-24T18:34:41.467Z,100969.66
2022-12-24T18:37:10.802Z,100967.58
2022-12-24T18:39:45.793Z,100971.33
2022-12-24T18:42:17.135Z,100969.48
2022-12-24T18:45:11.608Z,100973.61
2022-12-24T18:47:41.205Z,100976.41
2022-12-24T18:50:42.145Z,100978.46
2022-12-24T18:53:12.936Z,100985.34
2022-12-24T18:56:30.245Z,100993.85
2022-12-24T18:59:03.448Z,100995.33
2022-12-24T19:01:35.236Z,100996.02
2022-12-24T19:04:04.964Z,101000.31
2022-12-24T19:06:34.282Z,101004.29
2022-12-24T19:09:04.080Z,101008.80
2022-12-24T19:15:17.008Z,101015.88
2022-12-24T19:17:55.695Z,101021.98
2022-12-24T19:20:24.945Z,101024.44
2022-12-24T19:23:31.819Z,101031.61
2022-12-24T19:26:25.368Z,101039.41
2022-12-24T19:28:55.995Z,101046.23
2022-12-24T19:31:28.099Z,101041.66
2022-12-24T19:34:25.505Z,101050.29
2022-12-24T19:37:36.751Z,101049.59
2022-12-24T19:40:54.908Z,101047.77
2022-12-24T19:51:16.413Z,101054.23
2022-12-24T19:59:29.599Z,101070.77
2022-12-24T20:02:41.519Z,101073.63
2022-12-24T20:05:18.337Z,101074.98
2022-12-24T20:09:20.065Z,101076.30
2022-12-24T20:12:49.370Z,101067.66
2022-12-24T20:15:28.574Z,101071.41
2022-12-24T20:18:51.796Z,101075.09
2022-12-24T20:21:50.492Z,101077.60
2022-12-24T20:36:50.926Z,101087.43
2022-12-24T20:50:55.749Z,101085.46
2022-12-24T20:53:29.012Z,101086.77
2022-12-24T20:56:02.372Z,101090.00
2022-12-24T20:58:35.391Z,101093.37
2022-12-24T21:01:13.708Z,101098.95
2022-12-24T21:03:46.894Z,101101.89
2022-12-24T21:06:19.618Z,101105.35
2022-12-24T21:08:54.306Z,101108.30
2022-12-24T21:11:44.669Z,101106.85
2022-12-24T21:14:18.605Z,101099.33
2022-12-24T21:16:52.423Z,101105.30
2022-12-24T21:19:26.727Z,101105.29
2022-12-24T21:21:59.409Z,101108.44
2022-12-24T21:24:35.070Z,101108.55
2022-12-24T21:27:07.783Z,101106.31
2022-12-24T21:29:40.626Z,101106.42
2022-12-24T21:32:13.576Z,101106.64
2022-12-24T21:34:53.880Z,101110.48
2022-12-24T21:37:54.239Z,101109.31
2022-12-24T21:40:27.207Z,101103.97
2022-12-24T21:43:08.769Z,101105.63
2022-12-24T21:45:44.328Z,101103.05
2022-12-24T21:48:30.852Z,101105.31
2022-12-24T21:51:09.013Z,101101.36
2022-12-24T21:53:59.183Z,101104.33
2022-12-24T21:56:31.915Z,101103.66
2022-12-24T21:59:07.369Z,101103.18
2022-12-24T22:01:40.063Z,101110.81
2022-12-24T22:04:14.646Z,101109.77
2022-12-24T22:07:45.613Z,101110.27
2022-12-24T22:10:38.792Z,101108.06
2022-12-24T22:13:11.494Z,101107.56
2022-12-24T22:15:48.313Z,101099.21
2022-12-24T22:18:25.701Z,101088.98
2022-12-24T22:21:03.164Z,101082.23
2022-12-24T22:24:05.715Z,101078.61
2022-12-24T22:26:39.608Z,101083.94
2022-12-24T22:29:14.091Z,101085.63
2022-12-24T22:31:46.865Z,101090.16
2022-12-24T22:34:19.772Z,101086.01
2022-12-24T22:36:52.539Z,101094.52
2022-12-24T22:39:30.199Z,101092.77
2022-12-24T22:42:03.918Z,101099.90
2022-12-24T22:44:36.875Z,101103.35
2022-12-24T22:47:09.896Z,101106.70
2022-12-24T22:49:45.066Z,101115.96
2022-12-24T22:52:18.178Z,101114.77
2022-12-24T22:54:50.942Z,101120.23
2022-12-24T22:57:24.143Z,101119.61
2022-12-24T22:59:57.277Z,101115.85
2022-12-24T23:02:53.543Z,101113.30
2022-12-24T23:05:33.720Z,101115.09
2022-12-24T23:08:07.731Z,101114.27
2022-12-24T23:10:41.648Z,101118.52
2022-12-24T23:13:35.138Z,101121.80
2022-12-24T23:16:09.303Z,101133.38
2022-12-24T23:18:46.483Z,101138.88
2022-12-24T23:21:19.817Z,101145.29
2022-12-24T23:23:54.332Z,101155.38
2022-12-24T23:26:28.414Z,101160.44
2022-12-24T23:29:01.545Z,101169.16
2022-12-24T23:31:37.788Z,101170.13
2022-12-24T23:34:16.835Z,101171.83
2022-12-24T23:37:05.743Z,101170.05
2022-12-24T23:39:38.400Z,101162.75
2022-12-24T23:42:18.663Z,101160.70
2022-12-24T23:44:52.274Z,101163.89
2022-12-24T23:47:24.902Z,101162.11
2022-12-24T23:50:00.744Z,101163.95
2022-12-24T23:52:36.138Z,101164.63
2022-12-24T23:55:10.706Z,101170.05
2022-12-24T23:57:44.037Z,101176.53
